Aviation Digital Data Service (ADDS)

Output produced by METARs form (0908 UTC 18 February 2019)
found at http://www.aviationweather.gov/metar/data/
 
METAR text: FEFF 180800Z VRB02KT 3000 HZ FEW006 23/11 Q1013 BECMG 5000
Conditions at: FEFF (BANGUI/M'POKO (M, CF) observed 0800 UTC 18 February 2019
Temperature: 23.0°C (73°F)
Dewpoint: 11.0°C (52°F) [RH = 47%]
Pressure (altimeter): 29.91 inches Hg (1013.0 mb)
Winds: variable direction winds at 2 MPH (2 knots; 1.0 m/s)
Visibility: 1.86 miles (2.99 km)
Ceiling: at least 12,000 feet AGL
Clouds: few clouds at 600 feet AGL
Weather: HZ  (haze)

METAR text: FEFF 180700Z 00000KT 2000 BR FEW006 20/15 Q1013 BECMG 5000
Conditions at: FEFF (BANGUI/M'POKO (M, CF) observed 0700 UTC 18 February 2019
Temperature: 20.0°C (68°F)
Dewpoint: 15.0°C (59°F) [RH = 73%]
Pressure (altimeter): 29.91 inches Hg (1013.0 mb)
Winds: calm
Visibility: 1.24 miles (2.00 km)
Ceiling: at least 12,000 feet AGL
Clouds: few clouds at 600 feet AGL
Weather: BR  (mist)

METAR text: FEFF 180600Z 30002KT 2000 BR FEW006 20/16 Q1012 TEMPO 1200
Conditions at: FEFF (BANGUI/M'POKO (M, CF) observed 0600 UTC 18 February 2019
Temperature: 20.0°C (68°F)
Dewpoint: 16.0°C (61°F) [RH = 78%]
Pressure (altimeter): 29.88 inches Hg (1012.0 mb)
Winds: from the WNW (300 degrees) at 2 MPH (2 knots; 1.0 m/s)
Visibility: 1.24 miles (2.00 km)
Ceiling: at least 12,000 feet AGL
Clouds: few clouds at 600 feet AGL
Weather: BR  (mist)

METAR text: FEFF 180500Z 32003KT 3000 BR NSC 20/16 Q1012 TEMPO 2000
Conditions at: FEFF (BANGUI/M'POKO (M, CF) observed 0500 UTC 18 February 2019
Temperature: 20.0°C (68°F)
Dewpoint: 16.0°C (61°F) [RH = 78%]
Pressure (altimeter): 29.88 inches Hg (1012.0 mb)
Winds: from the NW (320 degrees) at 3 MPH (3 knots; 1.5 m/s)
Visibility: 1.86 miles (2.99 km)
Ceiling: at least 12,000 feet AGL
Clouds: sky clear below 12,000 feet AGL
Weather: BR  (mist)

METAR text: FEFF 180400Z 31002KT 6000 NSC 20/16 Q1011 BECMG 4000 BR
Conditions at: FEFF (BANGUI/M'POKO (M, CF) observed 0400 UTC 18 February 2019
Temperature: 20.0°C (68°F)
Dewpoint: 16.0°C (61°F) [RH = 78%]
Pressure (altimeter): 29.85 inches Hg (1011.0 mb)
Winds: from the NW (310 degrees) at 2 MPH (2 knots; 1.0 m/s)
Visibility: 4 miles ( 6 km)
Ceiling: at least 12,000 feet AGL
Clouds: sky clear below 12,000 feet AGL
Weather: no significant weather observed at this time

METAR text: FEFF 180300Z 00000KT 7000 NSC 22/18 Q1010 NOSIG
Conditions at: FEFF (BANGUI/M'POKO (M, CF) observed 0300 UTC 18 February 2019
Temperature: 22.0°C (72°F)
Dewpoint: 18.0°C (64°F) [RH = 78%]
Pressure (altimeter): 29.82 inches Hg (1010.0 mb)
Winds: calm
Visibility: 4 miles ( 7 km)
Ceiling: at least 12,000 feet AGL
Clouds: sky clear below 12,000 feet AGL
Weather: no significant weather observed at this time

METAR text: FEFF 180000Z 00000KT 7000 NSC 25/19 Q1011 NOSIG
Conditions at: FEFF (BANGUI/M'POKO (M, CF) observed 0000 UTC 18 February 2019
Temperature: 25.0°C (77°F)
Dewpoint: 19.0°C (66°F) [RH = 69%]
Pressure (altimeter): 29.85 inches Hg (1011.0 mb)
Winds: calm
Visibility: 4 miles ( 7 km)
Ceiling: at least 12,000 feet AGL
Clouds: sky clear below 12,000 feet AGL
Weather: no significant weather observed at this time

METAR text: FEFF 172300Z 00000KT 7000 NSC 25/16 Q1011 NOSIG
Conditions at: FEFF (BANGUI/M'POKO (M, CF) observed 2300 UTC 17 February 2019
Temperature: 25.0°C (77°F)
Dewpoint: 16.0°C (61°F) [RH = 57%]
Pressure (altimeter): 29.85 inches Hg (1011.0 mb)
Winds: calm
Visibility: 4 miles ( 7 km)
Ceiling: at least 12,000 feet AGL
Clouds: sky clear below 12,000 feet AGL
Weather: no significant weather observed at this time

METAR text: FEFF 172200Z 00000KT 7000 NSC 26/15 Q1012 NOSIG
Conditions at: FEFF (BANGUI/M'POKO (M, CF) observed 2200 UTC 17 February 2019
Temperature: 26.0°C (79°F)
Dewpoint: 15.0°C (59°F) [RH = 51%]
Pressure (altimeter): 29.88 inches Hg (1012.0 mb)
Winds: calm
Visibility: 4 miles ( 7 km)
Ceiling: at least 12,000 feet AGL
Clouds: sky clear below 12,000 feet AGL
Weather: no significant weather observed at this time

METAR text: FEFF 172100Z VRB02KT 7000 NSC 27/16 Q1012 NOSIG
Conditions at: FEFF (BANGUI/M'POKO (M, CF) observed 2100 UTC 17 February 2019
Temperature: 27.0°C (81°F)
Dewpoint: 16.0°C (61°F) [RH = 51%]
Pressure (altimeter): 29.88 inches Hg (1012.0 mb)
Winds: variable direction winds at 2 MPH (2 knots; 1.0 m/s)
Visibility: 4 miles ( 7 km)
Ceiling: at least 12,000 feet AGL
Clouds: sky clear below 12,000 feet AGL
Weather: no significant weather observed at this time

METAR text: FEFF 172000Z VRB02KT 6000 NSC 28/13 Q1011 NOSIG
Conditions at: FEFF (BANGUI/M'POKO (M, CF) observed 2000 UTC 17 February 2019
Temperature: 28.0°C (82°F)
Dewpoint: 13.0°C (55°F) [RH = 40%]
Pressure (altimeter): 29.85 inches Hg (1011.0 mb)
Winds: variable direction winds at 2 MPH (2 knots; 1.0 m/s)
Visibility: 4 miles ( 6 km)
Ceiling: at least 12,000 feet AGL
Clouds: sky clear below 12,000 feet AGL
Weather: no significant weather observed at this time

METAR text: FEFF 171900Z VRB02KT 6000 NSC 29/12 Q1011 NOSIG
Conditions at: FEFF (BANGUI/M'POKO (M, CF) observed 1900 UTC 17 February 2019
Temperature: 29.0°C (84°F)
Dewpoint: 12.0°C (54°F) [RH = 35%]
Pressure (altimeter): 29.85 inches Hg (1011.0 mb)
Winds: variable direction winds at 2 MPH (2 knots; 1.0 m/s)
Visibility: 4 miles ( 6 km)
Ceiling: at least 12,000 feet AGL
Clouds: sky clear below 12,000 feet AGL
Weather: no significant weather observed at this time

METAR text: FEFF 171800Z VRB02KT 4000 HZ NSC 30/13 Q1009 BECMG 6000 NSW
Conditions at: FEFF (BANGUI/M'POKO (M, CF) observed 1800 UTC 17 February 2019
Temperature: 30.0°C (86°F)
Dewpoint: 13.0°C (55°F) [RH = 35%]
Pressure (altimeter): 29.79 inches Hg (1009.0 mb)
Winds: variable direction winds at 2 MPH (2 knots; 1.0 m/s)
Visibility: 2.49 miles (4.01 km)
Ceiling: at least 12,000 feet AGL
Clouds: sky clear below 12,000 feet AGL
Weather: HZ  (haze)

METAR text: FEFF 171700Z VRB02KT 2500 HZ NSC 31/08 Q1008 NOSIG
Conditions at: FEFF (BANGUI/M'POKO (M, CF) observed 1700 UTC 17 February 2019
Temperature: 31.0°C (88°F)
Dewpoint: 8.0°C (46°F) [RH = 24%]
Pressure (altimeter): 29.76 inches Hg (1008.0 mb)
Winds: variable direction winds at 2 MPH (2 knots; 1.0 m/s)
Visibility: 1.55 miles (2.49 km)
Ceiling: at least 12,000 feet AGL
Clouds: sky clear below 12,000 feet AGL
Weather: HZ  (haze)

METAR text: FEFF 171600Z VRB02KT 4000 HZ NSC 33/07 Q1007 NOSIG
Conditions at: FEFF (BANGUI/M'POKO (M, CF) observed 1600 UTC 17 February 2019
Temperature: 33.0°C (91°F)
Dewpoint: 7.0°C (45°F) [RH = 20%]
Pressure (altimeter): 29.73 inches Hg (1007.0 mb)
Winds: variable direction winds at 2 MPH (2 knots; 1.0 m/s)
Visibility: 2.49 miles (4.01 km)
Ceiling: at least 12,000 feet AGL
Clouds: sky clear below 12,000 feet AGL
Weather: HZ  (haze)

METAR text: FEFF 171500Z 18004KT 4000 HZ NSC 34/05 Q1008 NOSIG
Conditions at: FEFF (BANGUI/M'POKO (M, CF) observed 1500 UTC 17 February 2019
Temperature: 34.0°C (93°F)
Dewpoint: 5.0°C (41°F) [RH = 16%]
Pressure (altimeter): 29.76 inches Hg (1008.0 mb)
Winds: from the S (180 degrees) at 5 MPH (4 knots; 2.1 m/s)
Visibility: 2.49 miles (4.01 km)
Ceiling: at least 12,000 feet AGL
Clouds: sky clear below 12,000 feet AGL
Weather: HZ  (haze)

METAR text: FEFF 171400Z VRB02KT 4000 HZ SKC 34/05 Q1008 NOSIG
Conditions at: FEFF (BANGUI/M'POKO (M, CF) observed 1400 UTC 17 February 2019
Temperature: 34.0°C (93°F)
Dewpoint: 5.0°C (41°F) [RH = 16%]
Pressure (altimeter): 29.76 inches Hg (1008.0 mb)
Winds: variable direction winds at 2 MPH (2 knots; 1.0 m/s)
Visibility: 2.49 miles (4.01 km)
Ceiling: at least 12,000 feet AGL
Clouds: clear skies
Weather: HZ  (haze)

METAR text: FEFF 171300Z 28002KT 4000 HZ NSC 34/05 Q1009 NOSIG
Conditions at: FEFF (BANGUI/M'POKO (M, CF) observed 1300 UTC 17 February 2019
Temperature: 34.0°C (93°F)
Dewpoint: 5.0°C (41°F) [RH = 16%]
Pressure (altimeter): 29.79 inches Hg (1009.0 mb)
Winds: from the W (280 degrees) at 2 MPH (2 knots; 1.0 m/s)
Visibility: 2.49 miles (4.01 km)
Ceiling: at least 12,000 feet AGL
Clouds: sky clear below 12,000 feet AGL
Weather: HZ  (haze)

METAR text: FEFF 171200Z 30005KT 4000 HZ NSC 34/05 Q1010 NOSIG
Conditions at: FEFF (BANGUI/M'POKO (M, CF) observed 1200 UTC 17 February 2019
Temperature: 34.0°C (93°F)
Dewpoint: 5.0°C (41°F) [RH = 16%]
Pressure (altimeter): 29.82 inches Hg (1010.0 mb)
Winds: from the WNW (300 degrees) at 6 MPH (5 knots; 2.6 m/s)
Visibility: 2.49 miles (4.01 km)
Ceiling: at least 12,000 feet AGL
Clouds: sky clear below 12,000 feet AGL
Weather: HZ  (haze)

METAR text: FEFF 171100Z 30006KT 4000 HZ NSC 33/04 Q1011 NOSIG
Conditions at: FEFF (BANGUI/M'POKO (M, CF) observed 1100 UTC 17 February 2019
Temperature: 33.0°C (91°F)
Dewpoint: 4.0°C (39°F) [RH = 16%]
Pressure (altimeter): 29.85 inches Hg (1011.0 mb)
Winds: from the WNW (300 degrees) at 7 MPH (6 knots; 3.1 m/s)
Visibility: 2.49 miles (4.01 km)
Ceiling: at least 12,000 feet AGL
Clouds: sky clear below 12,000 feet AGL
Weather: HZ  (haze)

METAR text: FEFF 171000Z 32006KT 2000 HZ NSC 31/04 Q1013 BECMG 4000
Conditions at: FEFF (BANGUI/M'POKO (M, CF) observed 1000 UTC 17 February 2019
Temperature: 31.0°C (88°F)
Dewpoint: 4.0°C (39°F) [RH = 18%]
Pressure (altimeter): 29.91 inches Hg (1013.0 mb)
Winds: from the NW (320 degrees) at 7 MPH (6 knots; 3.1 m/s)
Visibility: 1.24 miles (2.00 km)
Ceiling: at least 12,000 feet AGL
Clouds: sky clear below 12,000 feet AGL
Weather: HZ  (haze)

METAR text: FEFF 170900Z 32006KT 2000 HZ NSC 29/04 Q1014 BECMG 4000
Conditions at: FEFF (BANGUI/M'POKO (M, CF) observed 0900 UTC 17 February 2019
Temperature: 29.0°C (84°F)
Dewpoint: 4.0°C (39°F) [RH = 20%]
Pressure (altimeter): 29.94 inches Hg (1014.0 mb)
Winds: from the NW (320 degrees) at 7 MPH (6 knots; 3.1 m/s)
Visibility: 1.24 miles (2.00 km)
Ceiling: at least 12,000 feet AGL
Clouds: sky clear below 12,000 feet AGL
Weather: HZ  (haze)

METAR text: FEFF 170800Z 00000KT 0900 HZ NSC 25/14 Q1014 BECMG 2000
Conditions at: FEFF (BANGUI/M'POKO (M, CF) observed 0800 UTC 17 February 2019
Temperature: 25.0°C (77°F)
Dewpoint: 14.0°C (57°F) [RH = 50%]
Pressure (altimeter): 29.94 inches Hg (1014.0 mb)
Winds: calm
Visibility: 0.56 miles (0.90 km)
Ceiling: at least 12,000 feet AGL
Clouds: sky clear below 12,000 feet AGL
Weather: HZ  (haze)

METAR text: FEFF 170700Z 00000KT 1200 BR NSC 22/15 Q1014 TEMPO 2000
Conditions at: FEFF (BANGUI/M'POKO (M, CF) observed 0700 UTC 17 February 2019
Temperature: 22.0°C (72°F)
Dewpoint: 15.0°C (59°F) [RH = 65%]
Pressure (altimeter): 29.94 inches Hg (1014.0 mb)
Winds: calm
Visibility: 0.75 miles (1.21 km)
Ceiling: at least 12,000 feet AGL
Clouds: sky clear below 12,000 feet AGL
Weather: BR  (mist)

METAR text: FEFF 170600Z 32003KT 2500 BR NSC 21/13 Q1013 NOSIG
Conditions at: FEFF (BANGUI/M'POKO (M, CF) observed 0600 UTC 17 February 2019
Temperature: 21.0°C (70°F)
Dewpoint: 13.0°C (55°F) [RH = 60%]
Pressure (altimeter): 29.91 inches Hg (1013.0 mb)
Winds: from the NW (320 degrees) at 3 MPH (3 knots; 1.5 m/s)
Visibility: 1.55 miles (2.49 km)
Ceiling: at least 12,000 feet AGL
Clouds: sky clear below 12,000 feet AGL
Weather: BR  (mist)

METAR text: FEFF 170500Z VRB02KT 2000 BR NSC 21/13 Q1012 NOSIG
Conditions at: FEFF (BANGUI/M'POKO (M, CF) observed 0500 UTC 17 February 2019
Temperature: 21.0°C (70°F)
Dewpoint: 13.0°C (55°F) [RH = 60%]
Pressure (altimeter): 29.88 inches Hg (1012.0 mb)
Winds: variable direction winds at 2 MPH (2 knots; 1.0 m/s)
Visibility: 1.24 miles (2.00 km)
Ceiling: at least 12,000 feet AGL
Clouds: sky clear below 12,000 feet AGL
Weather: BR  (mist)

METAR text: FEFF 170400Z 00000KT 2000 BR NSC 21/13 Q1012 NOSIG
Conditions at: FEFF (BANGUI/M'POKO (M, CF) observed 0400 UTC 17 February 2019
Temperature: 21.0°C (70°F)
Dewpoint: 13.0°C (55°F) [RH = 60%]
Pressure (altimeter): 29.88 inches Hg (1012.0 mb)
Winds: calm
Visibility: 1.24 miles (2.00 km)
Ceiling: at least 12,000 feet AGL
Clouds: sky clear below 12,000 feet AGL
Weather: BR  (mist)

METAR text: FEFF 170300Z 33004KT 3000 BR NSC 21/13 Q1012 NOSIG
Conditions at: FEFF (BANGUI/M'POKO (M, CF) observed 0300 UTC 17 February 2019
Temperature: 21.0°C (70°F)
Dewpoint: 13.0°C (55°F) [RH = 60%]
Pressure (altimeter): 29.88 inches Hg (1012.0 mb)
Winds: from the NNW (330 degrees) at 5 MPH (4 knots; 2.1 m/s)
Visibility: 1.86 miles (2.99 km)
Ceiling: at least 12,000 feet AGL
Clouds: sky clear below 12,000 feet AGL
Weather: BR  (mist)

METAR text: FEFF 170200Z VRB02KT 3000 BR NSC 23/15 Q1011 NOSIG
Conditions at: FEFF (BANGUI/M'POKO (M, CF) observed 0200 UTC 17 February 2019
Temperature: 23.0°C (73°F)
Dewpoint: 15.0°C (59°F) [RH = 61%]
Pressure (altimeter): 29.85 inches Hg (1011.0 mb)
Winds: variable direction winds at 2 MPH (2 knots; 1.0 m/s)
Visibility: 1.86 miles (2.99 km)
Ceiling: at least 12,000 feet AGL
Clouds: sky clear below 12,000 feet AGL
Weather: BR  (mist)

METAR text: FEFF 170100Z 00000KT 3000 BR NSC 23/15 Q1012 NOSIG
Conditions at: FEFF (BANGUI/M'POKO (M, CF) observed 0100 UTC 17 February 2019
Temperature: 23.0°C (73°F)
Dewpoint: 15.0°C (59°F) [RH = 61%]
Pressure (altimeter): 29.88 inches Hg (1012.0 mb)
Winds: calm
Visibility: 1.86 miles (2.99 km)
Ceiling: at least 12,000 feet AGL
Clouds: sky clear below 12,000 feet AGL
Weather: BR  (mist)

METAR text: FEFF 170000Z 00000KT 3000 BR NSC 23/15 Q1012 NOSIG
Conditions at: FEFF (BANGUI/M'POKO (M, CF) observed 0000 UTC 17 February 2019
Temperature: 23.0°C (73°F)
Dewpoint: 15.0°C (59°F) [RH = 61%]
Pressure (altimeter): 29.88 inches Hg (1012.0 mb)
Winds: calm
Visibility: 1.86 miles (2.99 km)
Ceiling: at least 12,000 feet AGL
Clouds: sky clear below 12,000 feet AGL
Weather: BR  (mist)

METAR text: FEFF 162300Z 00000KT 3000 BR NSC 25/16 Q1013 NOSIG
Conditions at: FEFF (BANGUI/M'POKO (M, CF) observed 2300 UTC 16 February 2019
Temperature: 25.0°C (77°F)
Dewpoint: 16.0°C (61°F) [RH = 57%]
Pressure (altimeter): 29.91 inches Hg (1013.0 mb)
Winds: calm
Visibility: 1.86 miles (2.99 km)
Ceiling: at least 12,000 feet AGL
Clouds: sky clear below 12,000 feet AGL
Weather: BR  (mist)

METAR text: FEFF 162200Z 16003KT 3000 BR NSC 26/16 Q1013 NOSIG
Conditions at: FEFF (BANGUI/M'POKO (M, CF) observed 2200 UTC 16 February 2019
Temperature: 26.0°C (79°F)
Dewpoint: 16.0°C (61°F) [RH = 54%]
Pressure (altimeter): 29.91 inches Hg (1013.0 mb)
Winds: from the SSE (160 degrees) at 3 MPH (3 knots; 1.5 m/s)
Visibility: 1.86 miles (2.99 km)
Ceiling: at least 12,000 feet AGL
Clouds: sky clear below 12,000 feet AGL
Weather: BR  (mist)

Forecast for: FEFF (BANGUI/M'POKO (M, CF)
Text: TAF FEFF 1806/1912 31002KT 1500 BR NSC
Forecast period: 0600 to 0700 UTC 18 February 2019
Forecast type: FROM: standard forecast or significant change
Winds: from the NW (310 degrees) at 2 MPH (2 knots; 1.0 m/s)
Visibility: 0.93 miles (1.50 km)
Ceiling: unknown
Clouds: missing
Weather: BR  (mist)
Text: BECMG 1807/1808 4000 HZ
Forecast period: 0700 to 0900 UTC 18 February 2019
Forecast type: BECOMING: Conditions expected to become as follows by 0800 UTC 18 February 2019
Winds: from the NW (310 degrees) at 2 MPH (2 knots; 1.0 m/s)
Visibility: 2.49 miles (4.01 km)
Ceiling: unknown
Clouds: missing
Weather: HZ  (haze)
Text: BECMG 1809/1810 04012KT 8000 NSW
Forecast period: 0900 to 1500 UTC 18 February 2019
Forecast type: BECOMING: Conditions expected to become as follows by 1000 UTC 18 February 2019
Winds: from the NE (40 degrees) at 14 MPH (12 knots; 6.2 m/s)
Visibility: 5 miles (8 km)
Ceiling: unknown
Clouds: missing
Weather: NSW  (no significant weather)
Text: BECMG 1815/1817 VRB02KT 2500 HZFU
Forecast period: 1500 to 2000 UTC 18 February 2019
Forecast type: BECOMING: Conditions expected to become as follows by 1700 UTC 18 February 2019
Winds: variable direction winds at 2 MPH (2 knots; 1.0 m/s)
Visibility: 1.55 miles (2.49 km)
Ceiling: unknown
Clouds: missing
Weather: FU HZ  (smoke, haze)
Text: BECMG 1820/1822 6000 NSW
Forecast period: 2000 UTC 18 February 2019 to 1200 UTC 19 February 2019
Forecast type: BECOMING: Conditions expected to become as follows by 2200 UTC 18 February 2019
Winds: variable direction winds at 2 MPH (2 knots; 1.0 m/s)
Visibility: 4 miles (6 km)
Ceiling: unknown
Clouds: missing
Weather: NSW  (no significant weather)